CheckWX is a tool to help pilots better visualize weather data.  It is not intended as a substitute for an official pre-flight weather briefing.

23:49:05 UTC

HTZA METAR
Abeid Amani Karume International Airport
Zanzibar, Tanzania
Current

2 hours ago

HTZA 162200Z 04006KT 9999 FEW016 27/25 Q1007 NOSIG
Observed
Nov-16 @ 22:00 UTC
Wind
  • 040° at 6 KTS
Visibility
10,000+ meters
Flight Rules
VFR
Cloud Levels
  • Few at 1,600' AGL
Temperature
27°C / 81°F
Dewpoint
25°C / 77°F
Heat Index
31°C / 88°F
Humidity
89%
Altimeter
29.73" Hg
Pressure
1006.92 hPa
Previous

3 hours ago

HTZA 162100Z 05006KT 9999 SCT016 28/26 Q1008 NOSIG
Observed
Nov-16 @ 21:00 UTC
Wind
  • 050° at 6 KTS
Visibility
10,000+ meters
Flight Rules
VFR
Cloud Levels
  • Scattered at 1,600' AGL
Temperature
28°C / 82°F
Dewpoint
26°C / 79°F
Heat Index
33°C / 91°F
Humidity
89%
Altimeter
29.76" Hg
Pressure
1007.92 hPa
Previous

4 hours ago

HTZA 162000Z 05006KT 9999 FEW16 28/26 Q1007 NOSIG
Observed
Nov-16 @ 20:00 UTC
Wind
  • 050° at 6 KTS
Visibility
10,000+ meters
Temperature
28°C / 82°F
Dewpoint
26°C / 79°F
Heat Index
33°C / 91°F
Humidity
89%
Altimeter
29.73" Hg
Pressure
1006.92 hPa